AAL598 KCLE-CYYZ
Flight info
| Callsign | AAL598 |
|---|---|
| Flight time | 0h 43m |
| Altitude | 27000 |
| Route | PFLYD1 PATRC DCT FINGL NUBER6 |
| Aircraft | E75L/M-SDE3GILORVW/S |
Departure
| Time | 2026-05-04 23:45 |
|---|---|
| Airport | Cleveland Hopkins International Airport (KCLE) |
Arrival
| Time | 2026-05-05 00:28 |
|---|---|
| Airport | Toronto Pearson International Airport (CYYZ) |
| Time | Latitude | Longitude | Altitude | Speed | Heading |
|---|---|---|---|---|---|
| 2026-05-04 23:29 | 41.40798 | -81.84240 | 792 ft | 0 kts | 148° |
| 2026-05-04 23:39 | 41.40797 | -81.84240 | 795 ft | 0 kts | 148° |
| 2026-05-04 23:39 | 41.40799 | -81.84241 | 795 ft | 2 kts | 148° |
| 2026-05-04 23:40 | 41.40813 | -81.84253 | 795 ft | 2 kts | 148° |
| 2026-05-04 23:40 | 41.40827 | -81.84263 | 795 ft | 2 kts | 175° |
| 2026-05-04 23:40 | 41.40839 | -81.84258 | 795 ft | 0 kts | 235° |
| 2026-05-04 23:40 | 41.40837 | -81.84262 | 795 ft | 1 kts | 252° |
| 2026-05-04 23:41 | 41.40837 | -81.84265 | 795 ft | 0 kts | 263° |
| 2026-05-04 23:41 | 41.40837 | -81.84268 | 795 ft | 0 kts | 263° |
| 2026-05-04 23:41 | 41.40836 | -81.84272 | 795 ft | 1 kts | 263° |
| 2026-05-04 23:41 | 41.40847 | -81.84309 | 795 ft | 8 kts | 315° |
| 2026-05-04 23:42 | 41.40933 | -81.84343 | 795 ft | 18 kts | 344° |
| 2026-05-04 23:42 | 41.41084 | -81.84382 | 795 ft | 25 kts | 359° |
| 2026-05-04 23:42 | 41.41203 | -81.84360 | 795 ft | 14 kts | 30° |
| 2026-05-04 23:42 | 41.41313 | -81.84312 | 794 ft | 21 kts | 43° |
| 2026-05-04 23:43 | 41.41402 | -81.84182 | 796 ft | 17 kts | 50° |
| 2026-05-04 23:43 | 41.41442 | -81.84153 | 796 ft | 1 kts | 342° |
| 2026-05-04 23:43 | 41.41455 | -81.84159 | 796 ft | 0 kts | 338° |
| 2026-05-04 23:43 | 41.41465 | -81.84165 | 796 ft | 4 kts | 338° |
| 2026-05-04 23:44 | 41.41494 | -81.84212 | 795 ft | 11 kts | 275° |
| 2026-05-04 23:44 | 41.41471 | -81.84293 | 795 ft | 8 kts | 233° |
| 2026-05-04 23:44 | 41.41301 | -81.84560 | 796 ft | 75 kts | 230° |
| 2026-05-04 23:44 | 41.40802 | -81.85360 | 891 ft | 142 kts | 227° |
| 2026-05-04 23:45 | 41.40206 | -81.86598 | 1555 ft | 168 kts | 246° |
| 2026-05-04 23:45 | 41.39952 | -81.88212 | 2197 ft | 182 kts | 260° |
| 2026-05-04 23:45 | 41.40054 | -81.89802 | 3489 ft | 168 kts | 268° |
| 2026-05-04 23:45 | 41.40184 | -81.91351 | 4329 ft | 181 kts | 263° |
| 2026-05-04 23:46 | 41.40144 | -81.93172 | 4258 ft | 186 kts | 263° |
| 2026-05-04 23:46 | 41.40113 | -81.94901 | 4790 ft | 194 kts | 263° |
| 2026-05-04 23:46 | 41.40169 | -81.96731 | 5216 ft | 201 kts | 272° |
| 2026-05-04 23:46 | 41.40389 | -81.98616 | 5695 ft | 213 kts | 272° |
| 2026-05-04 23:47 | 41.40575 | -82.00612 | 6276 ft | 228 kts | 272° |
| 2026-05-04 23:47 | 41.40754 | -82.02776 | 6779 ft | 240 kts | 272° |
| 2026-05-04 23:47 | 41.40936 | -82.05005 | 7268 ft | 243 kts | 273° |
| 2026-05-04 23:47 | 41.41358 | -82.07191 | 7737 ft | 252 kts | 294° |
| 2026-05-04 23:48 | 41.42653 | -82.08823 | 8216 ft | 269 kts | 326° |
| 2026-05-04 23:48 | 41.44544 | -82.09336 | 8714 ft | 292 kts | 355° |
| 2026-05-04 23:48 | 41.46532 | -82.08502 | 9219 ft | 313 kts | 25° |
| 2026-05-04 23:48 | 41.48206 | -82.06575 | 9727 ft | 324 kts | 40° |
| 2026-05-04 23:49 | 41.49787 | -82.04427 | 10191 ft | 324 kts | 39° |
| 2026-05-04 23:49 | 41.50864 | -82.03061 | 10520 ft | 322 kts | 37° |
| 2026-05-04 23:49 | 41.53165 | -82.00497 | 11206 ft | 324 kts | 33° |
| 2026-05-04 23:49 | 41.55033 | -81.98794 | 11766 ft | 326 kts | 25° |
| 2026-05-04 23:50 | 41.57032 | -81.97406 | 12323 ft | 332 kts | 22° |
| 2026-05-04 23:50 | 41.59035 | -81.95789 | 12906 ft | 342 kts | 30° |
| 2026-05-04 23:50 | 41.60749 | -81.93499 | 13483 ft | 359 kts | 53° |
| 2026-05-04 23:50 | 41.61523 | -81.91527 | 13838 ft | 366 kts | 65° |
| 2026-05-04 23:51 | 41.62331 | -81.88267 | 14384 ft | 373 kts | 73° |
| 2026-05-04 23:51 | 41.62765 | -81.84824 | 14934 ft | 379 kts | 84° |
| 2026-05-04 23:51 | 41.63011 | -81.81289 | 15494 ft | 386 kts | 85° |
| 2026-05-04 23:51 | 41.63222 | -81.77686 | 16060 ft | 391 kts | 85° |
| 2026-05-04 23:52 | 41.63497 | -81.72841 | 16829 ft | 398 kts | 86° |
| 2026-05-04 23:52 | 41.63704 | -81.69158 | 17401 ft | 397 kts | 86° |
| 2026-05-04 23:52 | 41.63843 | -81.66669 | 17798 ft | 398 kts | 86° |
| 2026-05-04 23:52 | 41.64050 | -81.62960 | 18328 ft | 401 kts | 86° |
| 2026-05-04 23:53 | 41.64256 | -81.59225 | 18847 ft | 404 kts | 86° |
| 2026-05-04 23:53 | 41.64712 | -81.55513 | 19428 ft | 407 kts | 70° |
| 2026-05-04 23:53 | 41.66025 | -81.52227 | 19998 ft | 407 kts | 49° |
| 2026-05-04 23:53 | 41.68111 | -81.49729 | 20579 ft | 402 kts | 27° |
| 2026-05-04 23:54 | 41.70676 | -81.48385 | 21193 ft | 393 kts | 5° |
| 2026-05-04 23:54 | 41.73367 | -81.48148 | 21835 ft | 388 kts | 358° |
| 2026-05-04 23:54 | 41.76071 | -81.47800 | 22487 ft | 392 kts | 2° |
| 2026-05-04 23:54 | 41.78775 | -81.47271 | 23143 ft | 394 kts | 6° |
| 2026-05-04 23:55 | 41.81455 | -81.46388 | 23715 ft | 397 kts | 10° |
| 2026-05-04 23:55 | 41.84130 | -81.45424 | 24274 ft | 399 kts | 11° |
| 2026-05-04 23:55 | 41.89581 | -81.43386 | 24902 ft | 420 kts | 10° |
| 2026-05-04 23:56 | 41.92445 | -81.42314 | 24969 ft | 434 kts | 11° |
| 2026-05-04 23:56 | 41.95386 | -81.41206 | 25000 ft | 441 kts | 11° |
| 2026-05-04 23:56 | 41.98354 | -81.40136 | 24995 ft | 444 kts | 8° |
| 2026-05-04 23:56 | 42.01422 | -81.39294 | 24998 ft | 457 kts | 6° |
| 2026-05-04 23:57 | 42.04594 | -81.38757 | 24983 ft | 457 kts | 359° |
| 2026-05-04 23:57 | 42.07729 | -81.38426 | 24970 ft | 448 kts | 359° |
| 2026-05-04 23:57 | 42.10839 | -81.38140 | 24990 ft | 449 kts | 358° |
| 2026-05-04 23:57 | 42.13955 | -81.37862 | 24920 ft | 448 kts | 358° |
| 2026-05-04 23:58 | 42.17061 | -81.37584 | 24829 ft | 448 kts | 358° |
| 2026-05-04 23:58 | 42.20167 | -81.37308 | 24770 ft | 447 kts | 358° |
| 2026-05-04 23:58 | 42.23275 | -81.37029 | 24727 ft | 447 kts | 358° |
| 2026-05-04 23:58 | 42.26375 | -81.36750 | 24699 ft | 447 kts | 358° |
| 2026-05-04 23:59 | 42.29484 | -81.36471 | 24697 ft | 447 kts | 358° |
| 2026-05-04 23:59 | 42.32597 | -81.36189 | 24678 ft | 448 kts | 358° |
| 2026-05-04 23:59 | 42.35709 | -81.35910 | 24664 ft | 448 kts | 358° |
| 2026-05-04 23:59 | 42.38817 | -81.35630 | 24668 ft | 448 kts | 358° |
| 2026-05-05 00:00 | 42.41889 | -81.35351 | 24677 ft | 448 kts | 358° |
| 2026-05-05 00:00 | 42.43993 | -81.35161 | 24680 ft | 448 kts | 358° |
| 2026-05-05 00:00 | 42.48114 | -81.34788 | 24669 ft | 448 kts | 358° |
| 2026-05-05 00:00 | 42.51226 | -81.34505 | 24671 ft | 448 kts | 358° |
| 2026-05-05 00:01 | 42.54344 | -81.34222 | 24562 ft | 449 kts | 358° |
| 2026-05-05 00:01 | 42.57446 | -81.33938 | 24191 ft | 442 kts | 358° |
| 2026-05-05 00:01 | 42.60470 | -81.33662 | 23812 ft | 430 kts | 358° |
| 2026-05-05 00:01 | 42.63438 | -81.33395 | 23333 ft | 425 kts | 358° |
| 2026-05-05 00:02 | 42.66353 | -81.33128 | 22785 ft | 414 kts | 358° |
| 2026-05-05 00:02 | 42.69196 | -81.32869 | 22239 ft | 405 kts | 358° |
| 2026-05-05 00:02 | 42.72003 | -81.32593 | 21702 ft | 405 kts | 0° |
| 2026-05-05 00:02 | 42.74782 | -81.31714 | 21054 ft | 414 kts | 12° |
| 2026-05-05 00:03 | 42.77496 | -81.30414 | 20388 ft | 413 kts | 15° |
| 2026-05-05 00:03 | 42.80137 | -81.28919 | 19746 ft | 411 kts | 21° |
| 2026-05-05 00:03 | 42.82667 | -81.27136 | 19120 ft | 408 kts | 23° |
| 2026-05-05 00:03 | 42.85157 | -81.25335 | 18843 ft | 403 kts | 24° |
| 2026-05-05 00:04 | 42.87634 | -81.23525 | 18751 ft | 406 kts | 24° |
| 2026-05-05 00:04 | 42.90125 | -81.21694 | 18715 ft | 408 kts | 24° |
| 2026-05-05 00:04 | 42.92619 | -81.19862 | 18684 ft | 407 kts | 24° |
| 2026-05-05 00:04 | 42.95112 | -81.18027 | 18671 ft | 407 kts | 24° |
| 2026-05-05 00:05 | 42.97607 | -81.16191 | 18662 ft | 407 kts | 24° |
| 2026-05-05 00:05 | 43.00104 | -81.14350 | 18643 ft | 407 kts | 24° |
| 2026-05-05 00:05 | 43.02597 | -81.12512 | 18596 ft | 407 kts | 24° |
| 2026-05-05 00:05 | 43.04923 | -81.10369 | 18413 ft | 413 kts | 37° |
| 2026-05-05 00:06 | 43.07008 | -81.07665 | 18225 ft | 413 kts | 42° |
| 2026-05-05 00:06 | 43.09000 | -81.04828 | 18060 ft | 414 kts | 44° |
| 2026-05-05 00:06 | 43.10850 | -81.01811 | 17867 ft | 415 kts | 50° |
| 2026-05-05 00:06 | 43.12607 | -80.98688 | 17652 ft | 413 kts | 50° |
| 2026-05-05 00:07 | 43.14337 | -80.95553 | 17447 ft | 412 kts | 50° |
| 2026-05-05 00:07 | 43.16057 | -80.92420 | 17228 ft | 411 kts | 51° |
| 2026-05-05 00:07 | 43.17771 | -80.89293 | 17019 ft | 410 kts | 50° |
| 2026-05-05 00:07 | 43.19480 | -80.86172 | 16806 ft | 409 kts | 50° |
| 2026-05-05 00:08 | 43.21184 | -80.83059 | 16602 ft | 407 kts | 50° |
| 2026-05-05 00:08 | 43.22879 | -80.79957 | 16384 ft | 406 kts | 50° |
| 2026-05-05 00:08 | 43.24570 | -80.76863 | 16176 ft | 405 kts | 50° |
| 2026-05-05 00:08 | 43.26254 | -80.73775 | 15999 ft | 405 kts | 50° |
| 2026-05-05 00:09 | 43.27936 | -80.70689 | 15794 ft | 402 kts | 51° |
| 2026-05-05 00:09 | 43.29570 | -80.67683 | 15571 ft | 385 kts | 50° |
| 2026-05-05 00:09 | 43.31147 | -80.64784 | 15350 ft | 373 kts | 50° |
| 2026-05-05 00:09 | 43.32678 | -80.61968 | 15141 ft | 363 kts | 50° |
| 2026-05-05 00:10 | 43.34180 | -80.59204 | 14874 ft | 360 kts | 50° |
| 2026-05-05 00:10 | 43.35678 | -80.56443 | 14502 ft | 360 kts | 50° |
| 2026-05-05 00:10 | 43.37145 | -80.53734 | 14140 ft | 357 kts | 50° |
| 2026-05-05 00:10 | 43.38623 | -80.51004 | 13785 ft | 354 kts | 50° |
| 2026-05-05 00:11 | 43.40088 | -80.48295 | 13421 ft | 352 kts | 50° |
| 2026-05-05 00:11 | 43.41550 | -80.45589 | 13028 ft | 351 kts | 50° |
| 2026-05-05 00:11 | 43.43002 | -80.42899 | 12630 ft | 349 kts | 50° |
| 2026-05-05 00:11 | 43.44377 | -80.40141 | 12235 ft | 349 kts | 56° |
| 2026-05-05 00:12 | 43.45613 | -80.37271 | 11859 ft | 348 kts | 59° |
| 2026-05-05 00:12 | 43.46696 | -80.34304 | 11477 ft | 347 kts | 66° |
| 2026-05-05 00:12 | 43.47596 | -80.31230 | 11105 ft | 345 kts | 68° |
| 2026-05-05 00:12 | 43.48461 | -80.28161 | 10737 ft | 343 kts | 69° |
| 2026-05-05 00:13 | 43.49313 | -80.25099 | 10376 ft | 341 kts | 69° |
| 2026-05-05 00:13 | 43.50184 | -80.22066 | 9989 ft | 340 kts | 69° |
| 2026-05-05 00:13 | 43.51001 | -80.19023 | 9586 ft | 338 kts | 70° |
| 2026-05-05 00:13 | 43.51811 | -80.15999 | 9151 ft | 335 kts | 70° |
| 2026-05-05 00:14 | 43.52611 | -80.13001 | 8710 ft | 331 kts | 70° |
| 2026-05-05 00:14 | 43.53403 | -80.10032 | 8281 ft | 329 kts | 70° |
| 2026-05-05 00:14 | 43.54188 | -80.07099 | 8071 ft | 323 kts | 70° |
| 2026-05-05 00:14 | 43.54964 | -80.04179 | 8022 ft | 326 kts | 70° |
| 2026-05-05 00:15 | 43.55747 | -80.01234 | 7996 ft | 328 kts | 70° |
| 2026-05-05 00:15 | 43.56533 | -79.98282 | 7980 ft | 328 kts | 70° |
| 2026-05-05 00:15 | 43.57307 | -79.95369 | 7891 ft | 329 kts | 70° |
| 2026-05-05 00:15 | 43.58343 | -79.92578 | 7600 ft | 326 kts | 51° |
| 2026-05-05 00:16 | 43.59876 | -79.90309 | 7344 ft | 323 kts | 41° |
| 2026-05-05 00:16 | 43.61509 | -79.88194 | 7073 ft | 322 kts | 40° |
| 2026-05-05 00:16 | 43.63152 | -79.86116 | 6802 ft | 317 kts | 39° |
| 2026-05-05 00:16 | 43.64767 | -79.84112 | 6524 ft | 309 kts | 39° |
| 2026-05-05 00:17 | 43.66360 | -79.82153 | 6239 ft | 304 kts | 40° |
| 2026-05-05 00:17 | 43.67901 | -79.80151 | 6080 ft | 304 kts | 41° |
| 2026-05-05 00:17 | 43.69419 | -79.78109 | 6003 ft | 305 kts | 43° |
| 2026-05-05 00:17 | 43.70931 | -79.76059 | 5995 ft | 305 kts | 43° |
| 2026-05-05 00:18 | 43.72442 | -79.74008 | 5984 ft | 305 kts | 43° |
| 2026-05-05 00:18 | 43.73929 | -79.71981 | 5972 ft | 293 kts | 43° |
| 2026-05-05 00:18 | 43.75344 | -79.70050 | 5962 ft | 281 kts | 43° |
| 2026-05-05 00:18 | 43.76715 | -79.68173 | 5898 ft | 275 kts | 43° |
| 2026-05-05 00:19 | 43.78054 | -79.66337 | 5730 ft | 274 kts | 43° |
| 2026-05-05 00:19 | 43.79406 | -79.64487 | 5576 ft | 273 kts | 43° |
| 2026-05-05 00:19 | 43.80765 | -79.62641 | 5411 ft | 274 kts | 44° |
| 2026-05-05 00:19 | 43.82132 | -79.60795 | 5268 ft | 275 kts | 43° |
| 2026-05-05 00:20 | 43.83511 | -79.58926 | 4912 ft | 278 kts | 43° |
| 2026-05-05 00:20 | 43.84905 | -79.57050 | 4525 ft | 282 kts | 43° |
| 2026-05-05 00:20 | 43.86326 | -79.55142 | 4136 ft | 284 kts | 43° |
| 2026-05-05 00:20 | 43.87694 | -79.53232 | 3999 ft | 274 kts | 52° |
| 2026-05-05 00:21 | 43.88538 | -79.50842 | 3491 ft | 280 kts | 80° |
| 2026-05-05 00:21 | 43.88534 | -79.48209 | 3137 ft | 268 kts | 114° |
| 2026-05-05 00:21 | 43.87712 | -79.46045 | 3056 ft | 245 kts | 135° |
| 2026-05-05 00:21 | 43.86765 | -79.44284 | 2983 ft | 210 kts | 138° |
| 2026-05-05 00:22 | 43.85869 | -79.42793 | 2951 ft | 191 kts | 150° |
| 2026-05-05 00:22 | 43.84790 | -79.42146 | 2933 ft | 157 kts | 190° |
| 2026-05-05 00:22 | 43.83794 | -79.42553 | 2965 ft | 150 kts | 216° |
| 2026-05-05 00:22 | 43.83049 | -79.43586 | 2984 ft | 156 kts | 231° |
| 2026-05-05 00:23 | 43.82307 | -79.44685 | 2963 ft | 158 kts | 224° |
| 2026-05-05 00:23 | 43.81532 | -79.45772 | 2967 ft | 162 kts | 226° |
| 2026-05-05 00:23 | 43.80761 | -79.46929 | 3012 ft | 163 kts | 227° |
| 2026-05-05 00:23 | 43.79983 | -79.48063 | 3023 ft | 163 kts | 226° |
| 2026-05-05 00:24 | 43.79197 | -79.49210 | 3020 ft | 164 kts | 226° |
| 2026-05-05 00:24 | 43.78441 | -79.50319 | 2970 ft | 153 kts | 226° |
| 2026-05-05 00:24 | 43.77737 | -79.51349 | 2934 ft | 147 kts | 226° |
| 2026-05-05 00:24 | 43.77040 | -79.52366 | 2694 ft | 142 kts | 225° |
| 2026-05-05 00:25 | 43.76369 | -79.53347 | 2521 ft | 140 kts | 225° |
| 2026-05-05 00:25 | 43.75687 | -79.54345 | 2353 ft | 143 kts | 224° |
| 2026-05-05 00:25 | 43.75031 | -79.55302 | 2208 ft | 133 kts | 225° |
| 2026-05-05 00:25 | 43.74396 | -79.56228 | 2028 ft | 132 kts | 226° |
| 2026-05-05 00:26 | 43.73765 | -79.57151 | 1843 ft | 133 kts | 226° |
| 2026-05-05 00:26 | 43.73148 | -79.58053 | 1666 ft | 123 kts | 226° |
| 2026-05-05 00:26 | 43.72577 | -79.58887 | 1496 ft | 117 kts | 225° |
| 2026-05-05 00:26 | 43.71990 | -79.59738 | 1362 ft | 132 kts | 227° |
| 2026-05-05 00:27 | 43.71385 | -79.60671 | 1163 ft | 129 kts | 225° |
| 2026-05-05 00:27 | 43.70759 | -79.61557 | 972 ft | 133 kts | 224° |
| 2026-05-05 00:27 | 43.70119 | -79.62489 | 765 ft | 130 kts | 224° |
| 2026-05-05 00:27 | 43.69522 | -79.63342 | 625 ft | 123 kts | 225° |
| 2026-05-05 00:28 | 43.68976 | -79.64130 | 571 ft | 85 kts | 224° |
| 2026-05-05 00:28 | 43.68777 | -79.64420 | 566 ft | 11 kts | 212° |
| 2026-05-05 00:28 | 43.68739 | -79.64381 | 564 ft | 10 kts | 85° |
| 2026-05-05 00:28 | 43.68757 | -79.64268 | 562 ft | 14 kts | 77° |
| 2026-05-05 00:29 | 43.68778 | -79.64114 | 565 ft | 17 kts | 81° |
| 2026-05-05 00:29 | 43.68825 | -79.63968 | 568 ft | 17 kts | 51° |
| 2026-05-05 00:29 | 43.68923 | -79.63818 | 568 ft | 27 kts | 47° |
| 2026-05-05 00:29 | 43.69004 | -79.63597 | 569 ft | 26 kts | 117° |
| 2026-05-05 00:30 | 43.68877 | -79.63419 | 566 ft | 26 kts | 135° |
| 2026-05-05 00:30 | 43.68729 | -79.63224 | 564 ft | 32 kts | 138° |
| 2026-05-05 00:30 | 43.68569 | -79.63018 | 560 ft | 24 kts | 134° |
| 2026-05-05 00:30 | 43.68446 | -79.62855 | 561 ft | 25 kts | 140° |
| 2026-05-05 00:31 | 43.68324 | -79.62695 | 563 ft | 24 kts | 137° |
| 2026-05-05 00:31 | 43.68199 | -79.62535 | 562 ft | 27 kts | 136° |
| 2026-05-05 00:31 | 43.68044 | -79.62337 | 560 ft | 31 kts | 140° |
| 2026-05-05 00:31 | 43.67932 | -79.62128 | 561 ft | 22 kts | 80° |
| 2026-05-05 00:32 | 43.68036 | -79.61995 | 559 ft | 20 kts | 2° |
| 2026-05-05 00:32 | 43.68157 | -79.62038 | 561 ft | 6 kts | 356° |
| 2026-05-05 00:32 | 43.68180 | -79.62028 | 559 ft | 0 kts | 27° |